sensor_id;sensor_type;location;lat;lon;timestamp;P1;durP1;ratioP1;P2;durP2;ratioP2
16462;SDS011;8342;42.736;23.292;2022-08-06T00:01:53;6.77;;;6.17;;
16462;SDS011;8342;42.736;23.292;2022-08-06T00:04:20;8.90;;;6.67;;
16462;SDS011;8342;42.736;23.292;2022-08-06T00:06:47;10.50;;;6.97;;
16462;SDS011;8342;42.736;23.292;2022-08-06T00:09:14;8.80;;;6.33;;
16462;SDS011;8342;42.736;23.292;2022-08-06T00:11:41;8.77;;;6.27;;
16462;SDS011;8342;42.736;23.292;2022-08-06T00:14:08;8.67;;;6.40;;
16462;SDS011;8342;42.736;23.292;2022-08-06T00:16:36;7.43;;;6.70;;
16462;SDS011;8342;42.736;23.292;2022-08-06T00:19:03;7.03;;;6.43;;
16462;SDS011;8342;42.736;23.292;2022-08-06T00:21:30;7.27;;;6.50;;
16462;SDS011;8342;42.736;23.292;2022-08-06T00:23:57;7.43;;;6.47;;
16462;SDS011;8342;42.736;23.292;2022-08-06T00:26:24;7.30;;;5.50;;
16462;SDS011;8342;42.736;23.292;2022-08-06T00:28:51;7.83;;;6.33;;
16462;SDS011;8342;42.736;23.292;2022-08-06T00:31:18;6.80;;;6.07;;
16462;SDS011;8342;42.736;23.292;2022-08-06T00:33:46;6.50;;;5.90;;
16462;SDS011;8342;42.736;23.292;2022-08-06T00:36:13;7.13;;;6.33;;
16462;SDS011;8342;42.736;23.292;2022-08-06T00:38:40;6.07;;;5.47;;
16462;SDS011;8342;42.736;23.292;2022-08-06T00:41:07;6.57;;;5.90;;
16462;SDS011;8342;42.736;23.292;2022-08-06T00:43:34;19.73;;;6.17;;
16462;SDS011;8342;42.736;23.292;2022-08-06T00:46:01;5.93;;;5.33;;
16462;SDS011;8342;42.736;23.292;2022-08-06T00:48:27;6.10;;;5.17;;
16462;SDS011;8342;42.736;23.292;2022-08-06T00:50:55;6.70;;;5.97;;
16462;SDS011;8342;42.736;23.292;2022-08-06T00:53:22;5.80;;;5.30;;
16462;SDS011;8342;42.736;23.292;2022-08-06T00:55:49;5.80;;;5.20;;
16462;SDS011;8342;42.736;23.292;2022-08-06T00:58:16;5.37;;;4.87;;
16462;SDS011;8342;42.736;23.292;2022-08-06T01:00:43;7.20;;;6.50;;
16462;SDS011;8342;42.736;23.292;2022-08-06T01:03:10;8.13;;;5.70;;
16462;SDS011;8342;42.736;23.292;2022-08-06T01:05:37;5.70;;;5.17;;
16462;SDS011;8342;42.736;23.292;2022-08-06T01:08:05;6.80;;;6.07;;
16462;SDS011;8342;42.736;23.292;2022-08-06T01:10:32;7.50;;;5.90;;
16462;SDS011;8342;42.736;23.292;2022-08-06T01:12:59;6.70;;;6.03;;
16462;SDS011;8342;42.736;23.292;2022-08-06T01:15:26;7.60;;;5.80;;
16462;SDS011;8342;42.736;23.292;2022-08-06T01:17:53;6.70;;;6.00;;
16462;SDS011;8342;42.736;23.292;2022-08-06T01:20:23;7.33;;;5.67;;
16462;SDS011;8342;42.736;23.292;2022-08-06T01:23:05;6.33;;;5.67;;
16462;SDS011;8342;42.736;23.292;2022-08-06T01:28:30;5.77;;;5.17;;
16462;SDS011;8342;42.736;23.292;2022-08-06T01:31:02;7.80;;;6.30;;
16462;SDS011;8342;42.736;23.292;2022-08-06T01:33:32;6.43;;;5.83;;
16462;SDS011;8342;42.736;23.292;2022-08-06T01:36:04;6.47;;;5.23;;
16462;SDS011;8342;42.736;23.292;2022-08-06T01:38:35;6.40;;;5.80;;
16462;SDS011;8342;42.736;23.292;2022-08-06T01:41:04;10.90;;;6.20;;
16462;SDS011;8342;42.736;23.292;2022-08-06T01:43:35;7.00;;;6.30;;
16462;SDS011;8342;42.736;23.292;2022-08-06T01:46:03;6.73;;;6.07;;
16462;SDS011;8342;42.736;23.292;2022-08-06T01:48:31;6.67;;;5.97;;
16462;SDS011;8342;42.736;23.292;2022-08-06T01:50:59;6.23;;;5.63;;
16462;SDS011;8342;42.736;23.292;2022-08-06T01:53:28;6.50;;;5.90;;
16462;SDS011;8342;42.736;23.292;2022-08-06T01:55:57;6.13;;;5.53;;
16462;SDS011;8342;42.736;23.292;2022-08-06T01:58:27;6.80;;;6.10;;
16462;SDS011;8342;42.736;23.292;2022-08-06T02:00:57;6.17;;;5.57;;
16462;SDS011;8342;42.736;23.292;2022-08-06T02:03:25;6.60;;;5.90;;
16462;SDS011;8342;42.736;23.292;2022-08-06T02:05:55;9.20;;;5.87;;
16462;SDS011;8342;42.736;23.292;2022-08-06T02:08:24;5.83;;;5.23;;
16462;SDS011;8342;42.736;23.292;2022-08-06T02:10:54;6.67;;;5.87;;
16462;SDS011;8342;42.736;23.292;2022-08-06T02:13:21;10.67;;;5.77;;
16462;SDS011;8342;42.736;23.292;2022-08-06T02:15:49;6.93;;;5.60;;
16462;SDS011;8342;42.736;23.292;2022-08-06T02:18:17;6.20;;;5.67;;
16462;SDS011;8342;42.736;23.292;2022-08-06T02:20:45;6.60;;;6.00;;
16462;SDS011;8342;42.736;23.292;2022-08-06T02:23:15;6.37;;;5.63;;
16462;SDS011;8342;42.736;23.292;2022-08-06T02:25:43;6.00;;;5.40;;
16462;SDS011;8342;42.736;23.292;2022-08-06T02:28:12;6.30;;;5.40;;
16462;SDS011;8342;42.736;23.292;2022-08-06T02:30:40;7.63;;;5.73;;
16462;SDS011;8342;42.736;23.292;2022-08-06T02:33:09;6.03;;;5.43;;
16462;SDS011;8342;42.736;23.292;2022-08-06T02:35:39;6.57;;;5.90;;
16462;SDS011;8342;42.736;23.292;2022-08-06T02:38:10;6.67;;;5.80;;
16462;SDS011;8342;42.736;23.292;2022-08-06T02:40:41;6.10;;;5.50;;
16462;SDS011;8342;42.736;23.292;2022-08-06T02:43:10;6.40;;;5.53;;
16462;SDS011;8342;42.736;23.292;2022-08-06T02:45:41;9.13;;;5.77;;
16462;SDS011;8342;42.736;23.292;2022-08-06T02:48:12;6.80;;;6.10;;
16462;SDS011;8342;42.736;23.292;2022-08-06T02:50:47;6.40;;;5.80;;
16462;SDS011;8342;42.736;23.292;2022-08-06T02:53:16;7.03;;;6.37;;
16462;SDS011;8342;42.736;23.292;2022-08-06T02:55:45;7.17;;;6.53;;
16462;SDS011;8342;42.736;23.292;2022-08-06T02:58:15;6.73;;;6.07;;
16462;SDS011;8342;42.736;23.292;2022-08-06T03:00:47;6.43;;;5.60;;
16462;SDS011;8342;42.736;23.292;2022-08-06T03:03:15;7.87;;;6.60;;
16462;SDS011;8342;42.736;23.292;2022-08-06T03:05:43;9.10;;;6.63;;
16462;SDS011;8342;42.736;23.292;2022-08-06T03:08:13;8.93;;;6.47;;
16462;SDS011;8342;42.736;23.292;2022-08-06T03:10:43;5.97;;;5.43;;
16462;SDS011;8342;42.736;23.292;2022-08-06T03:13:10;7.10;;;6.43;;
16462;SDS011;8342;42.736;23.292;2022-08-06T03:15:37;7.90;;;6.33;;
16462;SDS011;8342;42.736;23.292;2022-08-06T03:18:05;7.20;;;5.97;;
16462;SDS011;8342;42.736;23.292;2022-08-06T03:20:32;6.60;;;6.00;;
16462;SDS011;8342;42.736;23.292;2022-08-06T03:23:01;9.47;;;6.10;;
16462;SDS011;8342;42.736;23.292;2022-08-06T03:25:32;11.87;;;6.17;;
16462;SDS011;8342;42.736;23.292;2022-08-06T03:28:00;10.20;;;6.00;;
16462;SDS011;8342;42.736;23.292;2022-08-06T03:30:27;8.30;;;6.30;;
16462;SDS011;8342;42.736;23.292;2022-08-06T03:32:55;7.40;;;6.20;;
16462;SDS011;8342;42.736;23.292;2022-08-06T03:35:23;7.13;;;6.47;;
16462;SDS011;8342;42.736;23.292;2022-08-06T03:37:51;7.83;;;6.53;;
16462;SDS011;8342;42.736;23.292;2022-08-06T03:40:18;8.77;;;6.90;;
16462;SDS011;8342;42.736;23.292;2022-08-06T03:42:47;7.30;;;6.53;;
16462;SDS011;8342;42.736;23.292;2022-08-06T03:45:14;8.40;;;6.87;;
16462;SDS011;8342;42.736;23.292;2022-08-06T03:47:41;8.13;;;6.20;;
16462;SDS011;8342;42.736;23.292;2022-08-06T03:50:10;9.07;;;5.73;;
16462;SDS011;8342;42.736;23.292;2022-08-06T03:52:40;12.80;;;6.47;;
16462;SDS011;8342;42.736;23.292;2022-08-06T03:55:11;9.07;;;6.93;;
16462;SDS011;8342;42.736;23.292;2022-08-06T03:57:44;8.23;;;5.93;;
16462;SDS011;8342;42.736;23.292;2022-08-06T04:00:14;7.83;;;7.13;;
16462;SDS011;8342;42.736;23.292;2022-08-06T04:02:44;15.07;;;6.80;;
16462;SDS011;8342;42.736;23.292;2022-08-06T04:05:13;7.47;;;6.60;;
16462;SDS011;8342;42.736;23.292;2022-08-06T04:07:42;6.60;;;5.90;;
16462;SDS011;8342;42.736;23.292;2022-08-06T04:10:08;8.13;;;7.30;;
16462;SDS011;8342;42.736;23.292;2022-08-06T04:12:36;10.73;;;7.13;;
16462;SDS011;8342;42.736;23.292;2022-08-06T04:15:05;9.37;;;7.93;;
16462;SDS011;8342;42.736;23.292;2022-08-06T04:17:33;10.20;;;6.90;;
16462;SDS011;8342;42.736;23.292;2022-08-06T04:20:02;11.43;;;6.40;;
16462;SDS011;8342;42.736;23.292;2022-08-06T04:22:30;8.40;;;7.20;;
16462;SDS011;8342;42.736;23.292;2022-08-06T04:24:57;8.10;;;7.30;;
16462;SDS011;8342;42.736;23.292;2022-08-06T04:27:23;8.47;;;6.97;;
16462;SDS011;8342;42.736;23.292;2022-08-06T04:29:52;8.53;;;7.23;;
16462;SDS011;8342;42.736;23.292;2022-08-06T04:32:21;8.63;;;6.90;;
16462;SDS011;8342;42.736;23.292;2022-08-06T04:34:49;15.03;;;6.10;;
16462;SDS011;8342;42.736;23.292;2022-08-06T04:37:17;14.53;;;7.20;;
16462;SDS011;8342;42.736;23.292;2022-08-06T04:39:44;11.07;;;7.00;;
16462;SDS011;8342;42.736;23.292;2022-08-06T04:42:11;6.93;;;6.23;;
16462;SDS011;8342;42.736;23.292;2022-08-06T04:44:38;8.10;;;7.30;;
16462;SDS011;8342;42.736;23.292;2022-08-06T04:47:06;9.67;;;6.70;;
16462;SDS011;8342;42.736;23.292;2022-08-06T04:49:34;8.30;;;7.40;;
16462;SDS011;8342;42.736;23.292;2022-08-06T04:52:01;8.63;;;6.87;;
16462;SDS011;8342;42.736;23.292;2022-08-06T04:54:28;6.80;;;6.10;;
16462;SDS011;8342;42.736;23.292;2022-08-06T04:56:55;9.47;;;6.90;;
16462;SDS011;8342;42.736;23.292;2022-08-06T04:59:23;6.90;;;6.20;;
16462;SDS011;8342;42.736;23.292;2022-08-06T05:01:50;8.63;;;6.47;;
16462;SDS011;8342;42.736;23.292;2022-08-06T05:04:17;17.50;;;7.00;;
16462;SDS011;8342;42.736;23.292;2022-08-06T05:06:46;6.93;;;6.23;;
16462;SDS011;8342;42.736;23.292;2022-08-06T05:09:17;7.83;;;6.17;;
16462;SDS011;8342;42.736;23.292;2022-08-06T05:11:47;7.10;;;6.27;;
16462;SDS011;8342;42.736;23.292;2022-08-06T05:14:19;7.50;;;6.80;;
16462;SDS011;8342;42.736;23.292;2022-08-06T05:16:49;9.27;;;6.97;;
16462;SDS011;8342;42.736;23.292;2022-08-06T05:19:17;7.07;;;6.43;;
16462;SDS011;8342;42.736;23.292;2022-08-06T05:21:49;9.80;;;7.00;;
16462;SDS011;8342;42.736;23.292;2022-08-06T05:24:17;12.80;;;7.60;;
16462;SDS011;8342;42.736;23.292;2022-08-06T05:26:44;10.70;;;7.53;;
16462;SDS011;8342;42.736;23.292;2022-08-06T05:29:11;8.47;;;7.03;;
16462;SDS011;8342;42.736;23.292;2022-08-06T05:31:38;7.83;;;6.30;;
16462;SDS011;8342;42.736;23.292;2022-08-06T05:34:08;9.23;;;6.77;;
16462;SDS011;8342;42.736;23.292;2022-08-06T05:36:36;7.33;;;6.63;;
16462;SDS011;8342;42.736;23.292;2022-08-06T05:39:05;11.63;;;6.27;;
16462;SDS011;8342;42.736;23.292;2022-08-06T05:41:32;7.13;;;6.23;;
16462;SDS011;8342;42.736;23.292;2022-08-06T05:44:00;7.60;;;6.90;;
16462;SDS011;8342;42.736;23.292;2022-08-06T05:46:29;7.47;;;6.70;;
16462;SDS011;8342;42.736;23.292;2022-08-06T05:49:01;10.40;;;6.80;;
16462;SDS011;8342;42.736;23.292;2022-08-06T05:51:35;7.87;;;7.13;;
16462;SDS011;8342;42.736;23.292;2022-08-06T05:54:08;9.17;;;7.70;;
16462;SDS011;8342;42.736;23.292;2022-08-06T05:56:38;8.37;;;7.03;;
16462;SDS011;8342;42.736;23.292;2022-08-06T05:59:08;9.30;;;7.27;;
16462;SDS011;8342;42.736;23.292;2022-08-06T06:01:43;16.23;;;7.70;;
16462;SDS011;8342;42.736;23.292;2022-08-06T06:04:11;16.80;;;6.20;;
16462;SDS011;8342;42.736;23.292;2022-08-06T06:06:39;8.40;;;6.63;;
16462;SDS011;8342;42.736;23.292;2022-08-06T06:09:07;8.20;;;6.87;;
16462;SDS011;8342;42.736;23.292;2022-08-06T06:11:34;10.63;;;7.13;;
16462;SDS011;8342;42.736;23.292;2022-08-06T06:14:02;7.10;;;6.33;;
16462;SDS011;8342;42.736;23.292;2022-08-06T06:16:33;8.50;;;6.37;;
16462;SDS011;8342;42.736;23.292;2022-08-06T06:19:06;11.37;;;6.80;;
16462;SDS011;8342;42.736;23.292;2022-08-06T06:21:45;8.87;;;6.30;;
16462;SDS011;8342;42.736;23.292;2022-08-06T06:24:21;9.43;;;6.17;;
16462;SDS011;8342;42.736;23.292;2022-08-06T06:26:53;7.13;;;6.47;;
16462;SDS011;8342;42.736;23.292;2022-08-06T06:29:26;10.07;;;6.63;;
16462;SDS011;8342;42.736;23.292;2022-08-06T06:31:58;7.20;;;6.50;;
16462;SDS011;8342;42.736;23.292;2022-08-06T06:34:39;8.90;;;6.30;;
16462;SDS011;8342;42.736;23.292;2022-08-06T06:37:13;6.73;;;5.73;;
16462;SDS011;8342;42.736;23.292;2022-08-06T06:39:47;7.73;;;5.57;;
16462;SDS011;8342;42.736;23.292;2022-08-06T06:42:32;7.97;;;5.40;;
16462;SDS011;8342;42.736;23.292;2022-08-06T06:45:04;8.20;;;6.03;;
16462;SDS011;8342;42.736;23.292;2022-08-06T06:47:34;6.70;;;5.37;;
16462;SDS011;8342;42.736;23.292;2022-08-06T06:50:05;10.00;;;6.27;;
16462;SDS011;8342;42.736;23.292;2022-08-06T06:52:37;8.20;;;5.87;;
16462;SDS011;8342;42.736;23.292;2022-08-06T06:55:08;9.00;;;5.50;;
16462;SDS011;8342;42.736;23.292;2022-08-06T06:57:50;8.40;;;6.57;;
16462;SDS011;8342;42.736;23.292;2022-08-06T07:00:18;9.20;;;5.50;;
16462;SDS011;8342;42.736;23.292;2022-08-06T07:02:46;9.00;;;5.60;;
16462;SDS011;8342;42.736;23.292;2022-08-06T07:05:14;9.47;;;6.70;;
16462;SDS011;8342;42.736;23.292;2022-08-06T07:07:41;10.30;;;5.90;;
16462;SDS011;8342;42.736;23.292;2022-08-06T07:10:11;5.90;;;5.10;;
16462;SDS011;8342;42.736;23.292;2022-08-06T07:12:39;6.10;;;5.50;;
16462;SDS011;8342;42.736;23.292;2022-08-06T07:15:08;11.50;;;7.70;;
16462;SDS011;8342;42.736;23.292;2022-08-06T07:17:35;6.70;;;6.10;;
16462;SDS011;8342;42.736;23.292;2022-08-06T07:20:05;6.63;;;6.03;;
16462;SDS011;8342;42.736;23.292;2022-08-06T07:22:33;8.40;;;6.30;;
16462;SDS011;8342;42.736;23.292;2022-08-06T07:25:02;7.30;;;6.57;;
16462;SDS011;8342;42.736;23.292;2022-08-06T07:27:32;10.23;;;5.87;;
16462;SDS011;8342;42.736;23.292;2022-08-06T07:29:59;10.70;;;5.70;;
16462;SDS011;8342;42.736;23.292;2022-08-06T07:32:28;6.30;;;5.70;;
16462;SDS011;8342;42.736;23.292;2022-08-06T07:34:55;6.93;;;6.23;;
16462;SDS011;8342;42.736;23.292;2022-08-06T07:37:22;6.33;;;5.73;;
16462;SDS011;8342;42.736;23.292;2022-08-06T07:39:52;7.60;;;6.53;;
16462;SDS011;8342;42.736;23.292;2022-08-06T07:42:20;6.50;;;5.90;;
16462;SDS011;8342;42.736;23.292;2022-08-06T07:44:51;5.90;;;5.30;;
16462;SDS011;8342;42.736;23.292;2022-08-06T07:47:20;6.53;;;5.70;;
16462;SDS011;8342;42.736;23.292;2022-08-06T07:49:53;6.73;;;6.07;;
16462;SDS011;8342;42.736;23.292;2022-08-06T07:52:21;13.43;;;11.10;;
16462;SDS011;8342;42.736;23.292;2022-08-06T07:54:48;6.37;;;5.77;;
16462;SDS011;8342;42.736;23.292;2022-08-06T07:57:15;14.50;;;7.37;;
16462;SDS011;8342;42.736;23.292;2022-08-06T07:59:42;9.37;;;7.00;;
16462;SDS011;8342;42.736;23.292;2022-08-06T08:02:11;7.73;;;6.63;;
16462;SDS011;8342;42.736;23.292;2022-08-06T08:04:39;6.63;;;5.90;;
16462;SDS011;8342;42.736;23.292;2022-08-06T08:07:23;7.00;;;6.27;;
16462;SDS011;8342;42.736;23.292;2022-08-06T08:09:51;6.90;;;6.20;;
16462;SDS011;8342;42.736;23.292;2022-08-06T08:12:18;7.07;;;6.37;;
16462;SDS011;8342;42.736;23.292;2022-08-06T08:14:46;6.40;;;5.73;;
16462;SDS011;8342;42.736;23.292;2022-08-06T08:17:15;7.13;;;6.37;;
16462;SDS011;8342;42.736;23.292;2022-08-06T08:19:42;10.50;;;6.57;;
16462;SDS011;8342;42.736;23.292;2022-08-06T08:22:10;6.33;;;5.70;;
16462;SDS011;8342;42.736;23.292;2022-08-06T08:24:39;6.37;;;5.77;;
16462;SDS011;8342;42.736;23.292;2022-08-06T08:27:07;6.63;;;5.93;;
16462;SDS011;8342;42.736;23.292;2022-08-06T08:29:35;8.23;;;6.43;;
16462;SDS011;8342;42.736;23.292;2022-08-06T08:32:03;7.87;;;6.20;;
16462;SDS011;8342;42.736;23.292;2022-08-06T08:34:32;7.37;;;6.53;;
16462;SDS011;8342;42.736;23.292;2022-08-06T08:36:59;6.40;;;5.80;;
16462;SDS011;8342;42.736;23.292;2022-08-06T08:39:26;5.77;;;5.30;;
16462;SDS011;8342;42.736;23.292;2022-08-06T08:41:55;6.33;;;5.10;;
16462;SDS011;8342;42.736;23.292;2022-08-06T08:44:25;5.33;;;4.83;;
16462;SDS011;8342;42.736;23.292;2022-08-06T08:46:54;7.27;;;5.90;;
16462;SDS011;8342;42.736;23.292;2022-08-06T08:49:25;7.83;;;6.07;;
16462;SDS011;8342;42.736;23.292;2022-08-06T08:51:55;7.17;;;6.27;;
16462;SDS011;8342;42.736;23.292;2022-08-06T08:54:24;12.30;;;6.17;;
16462;SDS011;8342;42.736;23.292;2022-08-06T08:56:53;6.23;;;5.63;;
16462;SDS011;8342;42.736;23.292;2022-08-06T08:59:20;6.53;;;5.80;;
16462;SDS011;8342;42.736;23.292;2022-08-06T09:01:47;7.57;;;5.43;;
16462;SDS011;8342;42.736;23.292;2022-08-06T09:04:15;8.17;;;5.70;;
16462;SDS011;8342;42.736;23.292;2022-08-06T09:06:42;6.60;;;5.33;;
16462;SDS011;8342;42.736;23.292;2022-08-06T09:09:10;5.97;;;5.37;;
16462;SDS011;8342;42.736;23.292;2022-08-06T09:11:37;10.80;;;5.00;;
16462;SDS011;8342;42.736;23.292;2022-08-06T09:14:05;6.20;;;3.97;;
16462;SDS011;8342;42.736;23.292;2022-08-06T09:16:33;4.67;;;4.27;;
16462;SDS011;8342;42.736;23.292;2022-08-06T09:19:03;6.60;;;4.70;;
16462;SDS011;8342;42.736;23.292;2022-08-06T09:21:31;5.17;;;4.70;;
16462;SDS011;8342;42.736;23.292;2022-08-06T09:23:58;5.60;;;5.10;;
16462;SDS011;8342;42.736;23.292;2022-08-06T09:26:26;8.63;;;5.13;;
16462;SDS011;8342;42.736;23.292;2022-08-06T09:28:53;5.50;;;5.10;;
16462;SDS011;8342;42.736;23.292;2022-08-06T09:31:20;5.03;;;4.53;;
16462;SDS011;8342;42.736;23.292;2022-08-06T09:33:54;5.83;;;4.80;;
16462;SDS011;8342;42.736;23.292;2022-08-06T09:36:23;6.17;;;4.83;;
16462;SDS011;8342;42.736;23.292;2022-08-06T09:38:51;4.97;;;4.57;;
16462;SDS011;8342;42.736;23.292;2022-08-06T09:41:19;7.97;;;4.63;;
16462;SDS011;8342;42.736;23.292;2022-08-06T09:43:50;5.20;;;4.60;;
16462;SDS011;8342;42.736;23.292;2022-08-06T09:46:34;7.27;;;4.80;;
16462;SDS011;8342;42.736;23.292;2022-08-06T09:49:02;5.20;;;4.50;;
16462;SDS011;8342;42.736;23.292;2022-08-06T09:51:29;6.00;;;4.90;;
16462;SDS011;8342;42.736;23.292;2022-08-06T09:53:59;5.53;;;5.03;;
16462;SDS011;8342;42.736;23.292;2022-08-06T09:56:27;7.67;;;4.50;;
16462;SDS011;8342;42.736;23.292;2022-08-06T09:58:58;6.80;;;5.73;;
16462;SDS011;8342;42.736;23.292;2022-08-06T10:01:25;5.60;;;5.10;;
16462;SDS011;8342;42.736;23.292;2022-08-06T10:03:54;8.20;;;5.47;;
16462;SDS011;8342;42.736;23.292;2022-08-06T10:06:21;6.10;;;4.70;;
16462;SDS011;8342;42.736;23.292;2022-08-06T10:08:49;6.60;;;4.83;;
16462;SDS011;8342;42.736;23.292;2022-08-06T10:11:32;4.53;;;4.13;;
16462;SDS011;8342;42.736;23.292;2022-08-06T10:14:01;5.03;;;4.50;;
16462;SDS011;8342;42.736;23.292;2022-08-06T10:16:28;6.60;;;4.73;;
16462;SDS011;8342;42.736;23.292;2022-08-06T10:18:56;5.43;;;4.80;;
16462;SDS011;8342;42.736;23.292;2022-08-06T10:21:24;6.30;;;5.30;;
16462;SDS011;8342;42.736;23.292;2022-08-06T10:23:53;5.00;;;4.60;;
16462;SDS011;8342;42.736;23.292;2022-08-06T10:26:22;5.30;;;4.70;;
16462;SDS011;8342;42.736;23.292;2022-08-06T10:28:52;4.80;;;4.40;;
16462;SDS011;8342;42.736;23.292;2022-08-06T10:31:20;8.37;;;4.77;;
16462;SDS011;8342;42.736;23.292;2022-08-06T10:33:48;8.37;;;4.43;;
16462;SDS011;8342;42.736;23.292;2022-08-06T10:36:19;6.13;;;4.70;;
16462;SDS011;8342;42.736;23.292;2022-08-06T10:38:49;5.97;;;4.63;;
16462;SDS011;8342;42.736;23.292;2022-08-06T10:41:17;5.20;;;4.70;;
16462;SDS011;8342;42.736;23.292;2022-08-06T10:43:44;6.33;;;4.40;;
16462;SDS011;8342;42.736;23.292;2022-08-06T10:46:11;7.40;;;4.60;;
16462;SDS011;8342;42.736;23.292;2022-08-06T10:48:42;5.17;;;4.67;;
16462;SDS011;8342;42.736;23.292;2022-08-06T10:51:11;5.17;;;4.67;;
16462;SDS011;8342;42.736;23.292;2022-08-06T10:53:39;6.93;;;5.10;;
16462;SDS011;8342;42.736;23.292;2022-08-06T10:56:10;4.90;;;4.50;;
16462;SDS011;8342;42.736;23.292;2022-08-06T10:58:38;5.23;;;4.77;;
16462;SDS011;8342;42.736;23.292;2022-08-06T11:01:06;5.73;;;4.63;;
16462;SDS011;8342;42.736;23.292;2022-08-06T11:03:51;4.83;;;4.43;;
16462;SDS011;8342;42.736;23.292;2022-08-06T11:09:41;6.73;;;4.63;;
16462;SDS011;8342;42.736;23.292;2022-08-06T11:12:23;4.70;;;4.30;;
16462;SDS011;8342;42.736;23.292;2022-08-06T11:14:58;5.20;;;4.70;;
16462;SDS011;8342;42.736;23.292;2022-08-06T11:17:25;4.77;;;4.37;;
16462;SDS011;8342;42.736;23.292;2022-08-06T11:20:09;5.67;;;4.93;;
16462;SDS011;8342;42.736;23.292;2022-08-06T11:23:21;5.30;;;4.90;;
16462;SDS011;8342;42.736;23.292;2022-08-06T11:25:53;7.70;;;4.90;;
16462;SDS011;8342;42.736;23.292;2022-08-06T11:31:30;5.73;;;5.13;;
16462;SDS011;8342;42.736;23.292;2022-08-06T11:34:03;5.10;;;4.70;;
16462;SDS011;8342;42.736;23.292;2022-08-06T11:36:43;5.63;;;5.10;;
16462;SDS011;8342;42.736;23.292;2022-08-06T11:39:15;5.90;;;5.30;;
16462;SDS011;8342;42.736;23.292;2022-08-06T11:41:53;6.20;;;5.60;;
16462;SDS011;8342;42.736;23.292;2022-08-06T11:44:22;8.10;;;5.50;;
16462;SDS011;8342;42.736;23.292;2022-08-06T11:47:04;5.60;;;4.73;;
16462;SDS011;8342;42.736;23.292;2022-08-06T11:49:37;5.90;;;5.30;;
16462;SDS011;8342;42.736;23.292;2022-08-06T11:52:07;6.50;;;5.80;;
16462;SDS011;8342;42.736;23.292;2022-08-06T11:54:35;7.80;;;5.50;;
16462;SDS011;8342;42.736;23.292;2022-08-06T11:57:19;5.60;;;5.10;;
16462;SDS011;8342;42.736;23.292;2022-08-06T12:00:01;10.93;;;6.10;;
16462;SDS011;8342;42.736;23.292;2022-08-06T12:02:46;5.30;;;4.90;;
16462;SDS011;8342;42.736;23.292;2022-08-06T12:05:34;6.93;;;5.50;;
16462;SDS011;8342;42.736;23.292;2022-08-06T12:08:18;6.10;;;5.43;;
16462;SDS011;8342;42.736;23.292;2022-08-06T12:13:55;5.90;;;5.20;;
16462;SDS011;8342;42.736;23.292;2022-08-06T12:16:26;6.00;;;5.40;;
16462;SDS011;8342;42.736;23.292;2022-08-06T12:18:57;6.90;;;5.40;;
16462;SDS011;8342;42.736;23.292;2022-08-06T12:21:25;5.73;;;5.27;;
16462;SDS011;8342;42.736;23.292;2022-08-06T12:23:53;6.03;;;5.50;;
16462;SDS011;8342;42.736;23.292;2022-08-06T12:26:20;5.60;;;5.10;;
16462;SDS011;8342;42.736;23.292;2022-08-06T12:28:48;6.07;;;5.57;;
16462;SDS011;8342;42.736;23.292;2022-08-06T12:31:27;6.03;;;5.10;;
16462;SDS011;8342;42.736;23.292;2022-08-06T12:33:54;5.70;;;5.20;;
16462;SDS011;8342;42.736;23.292;2022-08-06T12:36:25;5.60;;;5.17;;
16462;SDS011;8342;42.736;23.292;2022-08-06T12:38:55;10.97;;;8.40;;
16462;SDS011;8342;42.736;23.292;2022-08-06T12:41:22;8.13;;;5.73;;
16462;SDS011;8342;42.736;23.292;2022-08-06T12:43:49;6.20;;;5.37;;
16462;SDS011;8342;42.736;23.292;2022-08-06T12:46:16;7.73;;;6.03;;
16462;SDS011;8342;42.736;23.292;2022-08-06T12:48:48;5.20;;;4.80;;
16462;SDS011;8342;42.736;23.292;2022-08-06T12:51:16;6.60;;;5.77;;
16462;SDS011;8342;42.736;23.292;2022-08-06T12:53:46;5.77;;;5.23;;
16462;SDS011;8342;42.736;23.292;2022-08-06T12:56:15;8.93;;;4.70;;
16462;SDS011;8342;42.736;23.292;2022-08-06T12:58:43;5.93;;;4.67;;
16462;SDS011;8342;42.736;23.292;2022-08-06T13:01:11;7.13;;;5.07;;
16462;SDS011;8342;42.736;23.292;2022-08-06T13:03:39;5.50;;;4.90;;
16462;SDS011;8342;42.736;23.292;2022-08-06T13:06:08;5.83;;;5.13;;
16462;SDS011;8342;42.736;23.292;2022-08-06T13:08:35;5.40;;;5.00;;
16462;SDS011;8342;42.736;23.292;2022-08-06T13:11:03;5.60;;;4.90;;
16462;SDS011;8342;42.736;23.292;2022-08-06T13:13:35;6.80;;;5.20;;
16462;SDS011;8342;42.736;23.292;2022-08-06T13:16:05;5.63;;;5.03;;
16462;SDS011;8342;42.736;23.292;2022-08-06T13:18:32;5.43;;;5.03;;
16462;SDS011;8342;42.736;23.292;2022-08-06T13:21:00;5.57;;;5.07;;
16462;SDS011;8342;42.736;23.292;2022-08-06T13:23:30;6.03;;;5.43;;
16462;SDS011;8342;42.736;23.292;2022-08-06T13:25:58;5.67;;;5.17;;
16462;SDS011;8342;42.736;23.292;2022-08-06T13:28:37;6.20;;;5.60;;
16462;SDS011;8342;42.736;23.292;2022-08-06T13:31:16;5.60;;;5.13;;
16462;SDS011;8342;42.736;23.292;2022-08-06T13:33:58;5.90;;;5.30;;
16462;SDS011;8342;42.736;23.292;2022-08-06T13:36:26;6.10;;;5.60;;
16462;SDS011;8342;42.736;23.292;2022-08-06T13:38:54;5.97;;;5.30;;
16462;SDS011;8342;42.736;23.292;2022-08-06T13:41:24;5.53;;;5.13;;
16462;SDS011;8342;42.736;23.292;2022-08-06T13:43:53;5.63;;;5.17;;
16462;SDS011;8342;42.736;23.292;2022-08-06T13:46:21;6.07;;;5.47;;
16462;SDS011;8342;42.736;23.292;2022-08-06T13:48:51;6.33;;;5.17;;
16462;SDS011;8342;42.736;23.292;2022-08-06T13:51:18;5.63;;;5.10;;
16462;SDS011;8342;42.736;23.292;2022-08-06T13:53:46;6.47;;;5.53;;
16462;SDS011;8342;42.736;23.292;2022-08-06T13:56:13;5.37;;;4.97;;
16462;SDS011;8342;42.736;23.292;2022-08-06T13:58:40;5.13;;;4.77;;
16462;SDS011;8342;42.736;23.292;2022-08-06T14:01:08;5.53;;;5.13;;
16462;SDS011;8342;42.736;23.292;2022-08-06T14:03:37;5.97;;;5.17;;
16462;SDS011;8342;42.736;23.292;2022-08-06T14:06:04;5.10;;;4.70;;
16462;SDS011;8342;42.736;23.292;2022-08-06T14:08:31;5.60;;;5.10;;
16462;SDS011;8342;42.736;23.292;2022-08-06T14:10:58;5.13;;;4.73;;
16462;SDS011;8342;42.736;23.292;2022-08-06T14:13:25;5.67;;;5.27;;
16462;SDS011;8342;42.736;23.292;2022-08-06T14:15:52;6.17;;;5.67;;
16462;SDS011;8342;42.736;23.292;2022-08-06T14:18:21;6.30;;;5.07;;
16462;SDS011;8342;42.736;23.292;2022-08-06T14:20:48;6.70;;;5.40;;
16462;SDS011;8342;42.736;23.292;2022-08-06T14:23:15;5.53;;;5.10;;
16462;SDS011;8342;42.736;23.292;2022-08-06T14:25:41;6.00;;;5.40;;
16462;SDS011;8342;42.736;23.292;2022-08-06T14:28:08;6.33;;;5.53;;
16462;SDS011;8342;42.736;23.292;2022-08-06T14:30:35;6.00;;;5.50;;
16462;SDS011;8342;42.736;23.292;2022-08-06T14:33:03;6.03;;;5.53;;
16462;SDS011;8342;42.736;23.292;2022-08-06T14:35:34;6.23;;;5.63;;
16462;SDS011;8342;42.736;23.292;2022-08-06T14:38:02;6.40;;;5.90;;
16462;SDS011;8342;42.736;23.292;2022-08-06T14:40:29;6.97;;;6.37;;
16462;SDS011;8342;42.736;23.292;2022-08-06T14:43:14;7.97;;;5.93;;
16462;SDS011;8342;42.736;23.292;2022-08-06T14:45:58;7.07;;;5.50;;
16462;SDS011;8342;42.736;23.292;2022-08-06T14:48:25;7.87;;;5.87;;
16462;SDS011;8342;42.736;23.292;2022-08-06T14:50:53;5.93;;;5.43;;
16462;SDS011;8342;42.736;23.292;2022-08-06T14:53:20;6.63;;;5.93;;
16462;SDS011;8342;42.736;23.292;2022-08-06T14:55:47;6.27;;;5.77;;
16462;SDS011;8342;42.736;23.292;2022-08-06T14:58:14;6.50;;;5.47;;
16462;SDS011;8342;42.736;23.292;2022-08-06T15:00:40;9.80;;;5.70;;
16462;SDS011;8342;42.736;23.292;2022-08-06T15:03:08;6.17;;;5.63;;
16462;SDS011;8342;42.736;23.292;2022-08-06T15:05:35;6.10;;;5.60;;
16462;SDS011;8342;42.736;23.292;2022-08-06T15:08:04;6.73;;;6.13;;
16462;SDS011;8342;42.736;23.292;2022-08-06T15:10:31;5.90;;;5.30;;
16462;SDS011;8342;42.736;23.292;2022-08-06T15:12:58;6.97;;;5.83;;